Flight Track Log - Related Links

Times and Time Zones

All times are in EDT time to prevent confusion due to time zone crossing. See the UAL4670 flight status page for this flight to view local times or setup timezone preferences in your user account.

Time Position Orientation Groundspeed Altitude Reporting Facility
EDT Latitude Longitude Course Direction KTS MPH feet Rate Location/Type
Tue 05:32:47 PM 40.6333 -74.2000 57° Northeast 177 204 1,800  Level New York TRACON
Tue 05:33:53 PM 40.6500 -74.2500 294° West 255 293 4,300 2,238 Climbing New York TRACON
Tue 05:34:53 PM 40.7000 -74.2000 37° Northeast 254 292 6,500 2,300 Climbing New York TRACON
Tue 05:35:00 PM 41.0250 -73.6666 56° Northeast  Level FlightAware Approximate
Tue 05:35:53 PM 40.7333 -74.1000 66° East 281 323 8,900  Level New York TRACON
Tue 05:36:00 PM 41.1056 -73.5289 46° Northeast  Level FlightAware Approximate
Tue 05:36:47 PM 40.7667 -74.0167 62° Northeast 313 360 10,000  Level New York TRACON
Tue 05:37:00 PM 41.1908 -73.3954 53° Northeast  Level FlightAware Approximate
Tue 05:37:53 PM 40.8167 -73.9000 60° Northeast 364 419 10,000  Level New York TRACON
Tue 05:38:00 PM 40.7652 -74.0363 57° Northeast  Level FlightAware Approximate
Tue 05:39:25 PM 40.9269 -73.7594 44° Northeast 383 441 11,900  Level Boston Center
Tue 05:40:26 PM 41.0136 -73.6378 47° Northeast 392 451 13,900 1,820 Climbing Boston Center
Tue 05:41:27 PM 41.0981 -73.5244 45° Northeast 399 459 15,600 1,584 Climbing Boston Center
Tue 05:42:31 PM 41.1769 -73.4181 45° Northeast 404 465 17,200 1,548 Climbing Boston Center
Tue 05:43:31 PM 41.2561 -73.3097 46° Northeast 408 470 18,800 1,574 Climbing Boston Center
Tue 05:44:33 PM 41.3381 -73.1983 46° Northeast 416 479 20,400 1,548 Climbing Boston Center
Tue 05:45:35 PM 41.4106 -73.0744 52° Northeast 418 481 22,000 1,525 Climbing Boston Center
Tue 05:46:35 PM 41.4706 -72.9367 60° Northeast 423 487 23,500 1,438 Climbing Boston Center
Tue 05:47:36 PM 41.5322 -72.7956 60° Northeast 435 501 24,900 1,377 Climbing Boston Center
Tue 05:48:37 PM 41.5967 -72.6522 59° Northeast 443 510 26,300 1,377 Climbing Boston Center
Tue 05:49:38 PM 41.6603 -72.5069 60° Northeast 451 519 27,700 1,355 Climbing Boston Center
Tue 05:50:41 PM 41.7244 -72.3631 59° Northeast 454 522 29,100 1,366 Climbing Boston Center
Tue 05:51:41 PM 41.7872 -72.2228 59° Northeast 446 513 30,500 942 Climbing Boston Center
Tue 05:52:42 PM 41.8647 -72.0481 59° Northeast 454 522 31,000 242 Climbing Boston Center
Tue 05:53:45 PM 41.9347 -71.8892 59° Northeast 490 564 31,000  Level Boston Center
Tue 05:54:46 PM 42.0114 -71.7225 58° Northeast 522 601 31,000 397 Level Boston Center
Tue 05:55:46 PM 42.0928 -71.5528 57° Northeast 538 619 31,800 927 Climbing Boston Center
Tue 05:56:49 PM 42.1717 -71.3856 57° Northeast 536 617 32,900 581 Climbing Boston Center
Tue 05:57:50 PM 42.2492 -71.2172 58° Northeast 532 612 33,000 50 Climbing Boston Center
Tue 05:58:50 PM 42.3394 -71.0267 57° Northeast 537 618 33,000  Level Boston Center
Tue 05:59:51 PM 42.4081 -70.8467 63° Northeast 537 618 33,000 432 Level Boston Center
Tue 06:00:55 PM 42.4764 -70.6550 64° Northeast 535 616 33,900 934 Climbing Boston Center
Tue 06:01:53 PM 42.5392 -70.4794 64° Northeast 525 604 34,900 541 Climbing Boston Center
Tue 06:02:57 PM 42.6025 -70.3031 64° Northeast 521 600 35,000 48 Climbing Boston Center
Tue 06:03:58 PM 42.6664 -70.1211 64° Northeast 531 611 35,000  Level Boston Center
Tue 06:04:58 PM 42.7281 -69.9378 65° Northeast 533 613 35,000  Level Boston Center
Tue 06:05:59 PM 42.7925 -69.7567 64° Northeast 532 612 35,000  Level Boston Center
Tue 06:07:00 PM 42.8542 -69.5778 65° Northeast 533 613 35,000  Level Boston Center
Tue 06:08:01 PM 42.9189 -69.3978 64° Northeast 532 612 35,000  Level Boston Center
Tue 06:09:01 PM 42.9986 -69.1756 64° Northeast 537 618 35,000  Level Boston Center
Tue 06:10:03 PM 43.0661 -68.9914 63° Northeast 539 620 35,000  Level Boston Center
Tue 06:10:54 PM 43.1167 -68.8333 66° East 540 621 35,000 -54 Level Moncton Center
Tue 06:11:54 PM 43.1667 -68.6500 69° East 540 621 34,900  Descending Moncton Center
Tue 06:12:54 PM 43.2500 -68.4833 55° Northeast 540 621 35,000 50 Climbing Moncton Center
Tue 06:13:54 PM 43.3000 -68.3000 69° East 540 621 35,000  Level Moncton Center
Tue 06:14:54 PM 43.3667 -68.1000 65° Northeast 540 621 35,000  Level Moncton Center
Tue 06:15:54 PM 43.4333 -67.9167 63° Northeast 540 621 35,000  Level Moncton Center
Tue 06:16:54 PM 43.5000 -67.7333 63° Northeast 540 621 35,000  Level Moncton Center
Tue 06:17:54 PM 43.5667 -67.5333 65° Northeast 540 621 35,000  Level Moncton Center
Tue 06:18:54 PM 43.6500 -67.3333 60° Northeast 550 633 35,000  Level Moncton Center
Tue 06:19:54 PM 43.7000 -67.1500 69° East 550 633 35,000  Level Moncton Center
Tue 06:20:54 PM 43.7667 -66.9667 63° Northeast 550 633 35,000  Level Moncton Center
Tue 06:21:54 PM 43.8500 -66.7667 60° Northeast 550 633 35,000  Level Moncton Center
Tue 06:22:54 PM 43.9000 -66.5500 72° East 560 644 35,000  Level Moncton Center
Tue 06:23:54 PM 43.9667 -66.3667 63° Northeast 560 644 35,000  Level Moncton Center
Tue 06:24:54 PM 44.0333 -66.1667 65° Northeast 560 644 35,000  Level Moncton Center
Tue 06:25:54 PM 44.1000 -65.9833 63° Northeast 560 644 35,000  Level Moncton Center
Tue 06:26:54 PM 44.1667 -65.7667 67° East 570 656 35,000  Level Moncton Center
Tue 06:27:54 PM 44.2333 -65.5833 63° Northeast 570 656 35,000  Level Moncton Center
Tue 06:28:54 PM 44.3000 -65.3833 65° Northeast 570 656 35,000  Level Moncton Center
Tue 06:29:54 PM 44.3667 -65.1667 67° East 570 656 35,000  Level Moncton Center
Tue 06:31:50 PM 44.4833 -64.7667 68° East 580 667 35,000  Level Gander Center
Tue 06:32:50 PM 44.5667 -64.5500 62° Northeast 580 667 35,000  Level Gander Center
Tue 06:33:50 PM 44.6167 -64.3667 69° East 580 667 35,000  Level Gander Center
Tue 06:34:50 PM 44.6667 -64.1333 73° East 580 667 35,000  Level Gander Center
Tue 06:35:50 PM 44.7500 -63.9500 57° Northeast 580 667 35,000  Level Gander Center
Tue 06:36:50 PM 44.8000 -63.7167 73° East 580 667 35,000  Level Gander Center
Tue 06:37:50 PM 44.8667 -63.5333 63° Northeast 580 667 35,000  Level Gander Center
Tue 06:38:50 PM 44.9333 -63.3333 65° Northeast 580 667 35,000  Level Gander Center
Tue 06:39:50 PM 45.0167 -63.1500 57° Northeast 580 667 35,000  Level Gander Center
Tue 06:40:50 PM 45.1000 -62.9333 61° Northeast 580 667 35,000  Level Gander Center
Tue 06:41:50 PM 45.1833 -62.7500 57° Northeast 570 656 35,000  Level Gander Center
Tue 06:42:50 PM 45.2500 -62.5667 63° Northeast 570 656 35,000  Level Gander Center
Tue 06:43:50 PM 45.3333 -62.3500 61° Northeast 570 656 35,000  Level Gander Center
Tue 06:44:50 PM 45.4167 -62.1667 57° Northeast 570 656 35,000  Level Gander Center
Tue 06:45:50 PM 45.5000 -61.9500 61° Northeast 570 656 35,000  Level Gander Center
Tue 06:46:50 PM 45.5833 -61.7667 57° Northeast 570 656 35,000  Level Gander Center
Tue 06:47:50 PM 45.6667 -61.5667 59° Northeast 570 656 35,000  Level Gander Center
Tue 06:48:54 PM 45.7333 -61.3500 66° East 570 656 35,000  Level Moncton Center
Tue 06:49:54 PM 45.8167 -61.1500 59° Northeast 570 656 35,000  Level Moncton Center
Tue 06:50:54 PM 45.8833 -60.9667 62° Northeast 570 656 35,000  Level Moncton Center
Tue 06:51:54 PM 45.9667 -60.7667 59° Northeast 570 656 35,000  Level Moncton Center
Tue 06:52:54 PM 46.0500 -60.5667 59° Northeast 570 656 35,000  Level Moncton Center
Tue 06:53:54 PM 46.1167 -60.3667 64° Northeast 560 644 35,000  Level Moncton Center
Tue 06:54:54 PM 46.2000 -60.1667 59° Northeast 560 644 35,000  Level Moncton Center
Tue 06:56:50 PM 46.3333 -59.8000 62° Northeast 550 633 35,000  Level Gander Center
Tue 06:57:50 PM 46.4167 -59.5833 61° Northeast 540 621 35,000  Level Gander Center
Tue 06:58:50 PM 46.4833 -59.4167 60° Northeast 530 610 35,000  Level Gander Center
Tue 06:59:50 PM 46.5500 -59.2500 60° Northeast 520 598 35,000  Level Gander Center
Tue 07:00:54 PM 46.6167 -59.0333 66° East 520 598 35,000  Level Moncton Center
Tue 07:01:50 PM 46.6667 -58.8667 66° East 510 587 35,000  Level Gander Center
Tue 07:02:50 PM 46.7500 -58.6833 56° Northeast 510 587 35,000  Level Gander Center
Tue 07:03:50 PM 46.8000 -58.5000 68° East 500 575 35,000  Level Gander Center
Tue 07:04:50 PM 46.8167 -58.2833 84° East 500 575 35,000  Level Gander Center
Tue 07:05:50 PM 46.8667 -58.1000 68° East 500 575 35,000  Level Gander Center
Tue 07:06:50 PM 46.9000 -57.8833 77° East 510 587 35,000  Level Gander Center
Tue 07:07:50 PM 46.9167 -57.6833 83° East 500 575 35,000  Level Gander Center
Tue 07:08:50 PM 46.9500 -57.5167 74° East 500 575 35,000  Level Gander Center
Tue 07:09:50 PM 46.9833 -57.2833 78° East 500 575 35,000  Level Gander Center
Tue 07:10:50 PM 47.0167 -57.1167 74° East 500 575 35,000  Level Gander Center
Tue 07:11:50 PM 47.0500 -56.9000 77° East 500 575 35,000  Level Gander Center
Tue 07:12:50 PM 47.0833 -56.7167 75° East 500 575 35,000  Level Gander Center
Tue 07:13:50 PM 47.1167 -56.5000 77° East 500 575 35,000  Level Gander Center
Tue 07:14:50 PM 47.1333 -56.3167 82° East 490 564 35,000  Level Gander Center
Tue 07:15:50 PM 47.1667 -56.1167 76° East 500 575 35,000  Level Gander Center
Tue 07:16:50 PM 47.2000 -55.9167 76° East 490 564 35,000  Level Gander Center
Tue 07:17:50 PM 47.2167 -55.7167 83° East 490 564 35,000  Level Gander Center
Tue 07:18:50 PM 47.2500 -55.5167 76° East 490 564 35,000  Level Gander Center
Tue 07:19:54 PM 47.2667 -55.3333 82° East 490 564 35,000  Level Moncton Center
Tue 07:20:54 PM 47.3000 -55.1000 78° East 490 564 35,000  Level Moncton Center
Tue 07:21:54 PM 47.3167 -54.9167 82° East 490 564 35,000  Level Moncton Center
Tue 07:23:50 PM 47.3833 -54.5500 75° East 490 564 35,000 -477 Level Gander Center
Tue 07:24:50 PM 47.4167 -54.3333 77° East 480 552 33,600 -1,950 Descending Gander Center
Tue 07:25:50 PM 47.4333 -54.1667 82° East 470 541 31,100 -2,700 Descending Gander Center
Tue 07:26:50 PM 47.4500 -53.9667 83° East 480 552 28,200 -3,000 Descending Gander Center
Tue 07:27:50 PM 47.4667 -53.7667 83° East 470 541 25,100 -3,000 Descending Gander Center
Tue 07:28:50 PM 47.4833 -53.5833 82° East 460 529 22,200 -3,000 Descending Gander Center
Tue 07:29:50 PM 47.5000 -53.4167 82° East 440 506 19,100 -2,900 Descending Gander Center
Tue 07:30:50 PM 47.5167 -53.2333 82° East 420 483 16,400 -3,150 Descending Gander Center
Tue 07:31:50 PM 47.5500 -53.0500 75° East 400 460 12,800 -2,450 Descending Gander Center
Tue 07:32:50 PM 47.5500 -52.9333 90° East 360 414 11,500 -2,000 Descending Gander Center
Tue 07:33:50 PM 47.5500 -52.7833 90° East 320 368 8,800 -2,550 Descending Gander Center
Tue 07:34:50 PM 47.5500 -52.6833 90° East 300 345 6,400 -2,800 Descending Gander Center
Tue 07:35:50 PM 47.5500 -52.5500 90° East 280 322 3,200 -2,000 Descending Gander Center
Tue 07:36:50 PM 47.6000 -52.5500 360° North 200 230 2,400 -700 Descending Gander Center
Tue 07:37:50 PM 47.6167 -52.6000 296° West 120 138 1,800 -550 Descending Gander Center
Tue 07:38:50 PM 47.6167 -52.6167 270° West 100 115 1,300 -550 Descending Gander Center
Tue 07:39:50 PM 47.6167 -52.6667 270° West 110 127 700 -450 Descending Gander Center
Tue 07:40:50 PM 47.6000 -52.7167 244° Southwest 110 127 400 -300 Descending Gander Center

Login

Don't have an account? Register now (free) for customized features, flight alerts, and more!